»·PEaware :: FDX258 KPHX-KSAN

FDX258 :: KPHX-KSAN

FLIGHT INFORMATION

Flight Status: Arrived
Operator:
Federal Express
More flights by this operator :: More flights under this callsign
Pilot: Brad M. (22842)
Aircraft: Unknown
(B77F)
More flights by this aircraft type
Origin: KPHX Phoenix Sky Harbor Intl
United States
Destination: KSAN San Diego Intl-Lindbergh
United States
More flights between these airports :: More routes between these airports
Route: FYRBD1 MOHAK J2 HOGGZ LUCKI1
File this flight plan on PilotEdge
Remarks:
Altitude:
(Current/Filed)
32,000ft
Speed:
(Current/Filed)
450kts
Departed: 16-May-19 02:52 PM
Arrived: 16-May-19 03:42 PM
Distance/Time
Traveled:
263nm/0:50
Distance/Time
To Go:
Arrived

Flight Plot

Page will automatically refresh every two minutes.

Flight plan parsing failed; only flown route is shown


Map Options




Map Legend


Flown Route
Filed Route
Departure Airport
Arrival Airport
Navaid (VOR, NDB)
Fix

Horizontal Profiles

Position Reports

Time Latitude Longitude Heading Altitude Ground
Speed
16-May-19 14:16 33.433557 -112.029186 270 1148ft 0kts
16-May-19 14:17 33.433557 -112.029186 270 1148ft 0kts
16-May-19 14:18 33.433557 -112.029186 270 1148ft 0kts
16-May-19 14:19 33.433557 -112.029186 270 1148ft 0kts
16-May-19 14:20 33.433557 -112.029186 270 1148ft 0kts
16-May-19 14:21 33.433557 -112.029186 270 1148ft 0kts
16-May-19 14:22 33.433557 -112.029186 270 1148ft 0kts
16-May-19 14:23 33.433557 -112.029186 270 1148ft 0kts
16-May-19 14:24 33.433557 -112.029186 270 1148ft 0kts
16-May-19 14:25 33.433557 -112.029186 270 1148ft 0kts
16-May-19 14:26 33.433557 -112.029186 270 1148ft 0kts
16-May-19 14:27 33.433557 -112.029186 270 1148ft 0kts
16-May-19 14:28 33.433557 -112.029186 270 1148ft 0kts
16-May-19 14:29 33.433557 -112.029186 270 1148ft 0kts
16-May-19 14:30 33.433557 -112.029186 270 1148ft 0kts
16-May-19 14:31 33.433557 -112.029186 270 1148ft 0kts
16-May-19 14:32 33.433557 -112.029186 270 1148ft 0kts
16-May-19 14:33 33.433557 -112.029186 270 1148ft 0kts
16-May-19 14:34 33.433557 -112.029186 270 1148ft 0kts
16-May-19 14:35 33.433557 -112.029186 270 1148ft 0kts
16-May-19 14:36 33.433557 -112.029186 270 1148ft 0kts
16-May-19 14:37 33.433555 -112.028725 270 1148ft 2kts
16-May-19 14:38 33.433552 -112.028110 270 1148ft 0kts
16-May-19 14:39 33.433552 -112.028110 270 1148ft 0kts
16-May-19 14:40 33.433552 -112.028110 270 1148ft 0kts
16-May-19 14:41 33.433291 -112.028513 191 1148ft 4kts
16-May-19 14:42 33.432845 -112.025764 89 1148ft 8kts
16-May-19 14:43 33.432847 -112.020812 89 1148ft 16kts
16-May-19 14:44 33.432130 -112.017629 92 1148ft 7kts
16-May-19 14:45 33.432127 -112.012737 90 1148ft 14kts
16-May-19 14:46 33.432117 -112.007386 89 1148ft 16kts
16-May-19 14:47 33.432122 -112.002256 89 1148ft 18kts
16-May-19 14:48 33.432116 -111.996556 89 1148ft 15kts
16-May-19 14:49 33.432071 -111.993743 119 1148ft 0kts
16-May-19 14:50 33.431068 -111.993955 252 1148ft 11kts
16-May-19 14:52 33.431035 -112.010751 269 1148ft 123kts
16-May-19 14:53 33.429991 -112.060292 263 2144ft 154kts
16-May-19 14:54 33.416302 -112.111035 245 4009ft 181kts
16-May-19 14:55 33.389050 -112.176071 211 5812ft 256kts
16-May-19 14:56 33.319110 -112.166282 165 9573ft 270kts
16-May-19 14:57 33.243811 -112.167191 212 12289ft 315kts
16-May-19 14:58 33.178154 -112.249267 230 15358ft 361kts
16-May-19 14:59 33.122033 -112.351723 237 18994ft 377kts
16-May-19 15:00 33.067668 -112.462112 236 22104ft 393kts
16-May-19 15:01 33.009323 -112.575193 236 24877ft 407kts
16-May-19 15:02 32.958593 -112.698035 252 27571ft 425kts
16-May-19 15:03 32.934016 -112.835695 256 30953ft 418kts
16-May-19 15:04 32.915530 -112.973658 257 31838ft 433kts
16-May-19 15:05 32.895717 -113.119364 257 31838ft 454kts
16-May-19 15:06 32.875559 -113.267626 257 31838ft 452kts
16-May-19 15:07 32.855372 -113.414940 257 31838ft 452kts
16-May-19 15:08 32.834482 -113.562192 257 31839ft 451kts
16-May-19 15:09 32.813539 -113.709638 257 31840ft 451kts
16-May-19 15:10 32.792679 -113.856352 257 31841ft 451kts
16-May-19 15:10 32.775815 -113.978722 260 31843ft 452kts
16-May-19 15:12 32.778443 -114.153665 268 31844ft 452kts
16-May-19 15:13 32.784290 -114.302843 268 31845ft 452kts
16-May-19 15:13 32.799640 -114.426774 279 31845ft 461kts
16-May-19 15:15 32.845494 -114.596777 282 31846ft 462kts
16-May-19 15:15 32.873260 -114.718910 272 31847ft 454kts
16-May-19 15:16 32.870483 -114.861722 261 31610ft 410kts
16-May-19 15:18 32.858402 -115.015295 261 30232ft 393kts
16-May-19 15:18 32.849898 -115.122407 261 29033ft 388kts
16-May-19 15:19 32.839957 -115.246399 260 27610ft 382kts
16-May-19 15:20 32.829807 -115.371427 260 26204ft 377kts
16-May-19 15:21 32.819766 -115.493642 260 24398ft 367kts
16-May-19 15:22 32.809831 -115.613128 260 22444ft 358kts
16-May-19 15:23 32.800037 -115.729636 259 20537ft 350kts
16-May-19 15:24 32.790376 -115.843341 259 18658ft 342kts
16-May-19 15:25 32.781081 -115.955290 259 16733ft 336kts
16-May-19 15:26 32.771650 -116.064392 260 14905ft 328kts
16-May-19 15:27 32.762210 -116.171065 261 13114ft 320kts
16-May-19 15:28 32.753310 -116.271519 261 12238ft 290kts
16-May-19 15:29 32.746139 -116.363286 262 11405ft 266kts
16-May-19 15:30 32.739275 -116.450185 262 10118ft 262kts
16-May-19 15:31 32.731982 -116.536183 261 9833ft 264kts
16-May-19 15:32 32.723535 -116.622550 261 9845ft 263kts
16-May-19 15:33 32.716105 -116.708961 262 9810ft 264kts
16-May-19 15:34 32.709206 -116.796346 262 8725ft 262kts
16-May-19 15:35 32.689443 -116.878355 246 7704ft 246kts
16-May-19 15:36 32.673896 -116.949032 272 6555ft 212kts
16-May-19 15:37 32.690557 -117.014251 283 4629ft 197kts
16-May-19 15:38 32.705665 -117.074278 284 2552ft 180kts
16-May-19 15:39 32.717565 -117.123388 285 1255ft 129kts
16-May-19 15:40 32.727300 -117.163751 286 375ft 130kts
16-May-19 15:41 32.735318 -117.196894 283 28ft 16kts
16-May-19 15:42 32.734368 -117.197273 106 28ft 6kts
16-May-19 15:43 32.733203 -117.192473 105 28ft 9kts
16-May-19 15:44 32.734786 -117.190061 105 28ft 15kts
16-May-19 15:45 32.734438 -117.188651 106 28ft 0kts
16-May-19 15:46 32.733870 -117.186272 106 28ft 19kts
16-May-19 15:47 32.734890 -117.184303 325 28ft 9kts
16-May-19 15:48 32.736380 -117.185013 355 28ft 3kts
16-May-19 15:49 32.736653 -117.185039 355 28ft 0kts
16-May-19 15:50 32.736653 -117.185039 355 28ft 0kts
16-May-19 15:51 32.736653 -117.185039 355 28ft 0kts
16-May-19 15:52 32.736653 -117.185039 355 28ft 0kts
16-May-19 15:53 32.736653 -117.185039 355 28ft 0kts

Navigation Log

Ident Type
Flight plan parsing failed, navigation log unavailable